Time;durP1;ratioP1;P1;durP2;ratioP2;P2;SDS_P1;SDS_P2;PMS_P1;PMS_P2;Temp;Humidity;BMP_temperature;BMP_pressure;BME280_temperature;BME280_humidity;BME280_pressure;Samples;Min_cycle;Max_cycle;Signal;HPM_P1;HPM_P2
2024/01/16 00:01:29;;;;;;;8.93;1.83;;;;;;;;;;4984576;28;94873;-80
2024/01/16 00:03:56;;;;;;;7.28;1.77;;;;;;;;;;4982275;28;93129;-80
2024/01/16 00:06:22;;;;;;;8.73;1.67;;;;;;;;;;4981226;28;92149;-79
2024/01/16 00:08:49;;;;;;;5.20;1.70;;;;;;;;;;4970997;28;92542;-79
2024/01/16 00:11:15;;;;;;;8.07;1.65;;;;;;;;;;4967391;28;92756;-79
2024/01/16 00:13:42;;;;;;;7.00;1.40;;;;;;;;;;4976227;28;92098;-80
2024/01/16 00:16:08;;;;;;;7.45;1.70;;;;;;;;;;4963318;28;92207;-79
2024/01/16 00:18:35;;;;;;;6.05;1.50;;;;;;;;;;4962243;28;93174;-78
2024/01/16 00:21:02;;;;;;;8.02;1.75;;;;;;;;;;4963774;28;92522;-80
2024/01/16 00:23:31;;;;;;;5.57;1.45;;;;;;;;;;4966131;28;92366;-79
2024/01/16 00:25:58;;;;;;;5.60;1.60;;;;;;;;;;4960173;28;94674;-80
2024/01/16 00:28:24;;;;;;;4.80;1.40;;;;;;;;;;4962840;28;94629;-80
2024/01/16 00:30:51;;;;;;;6.72;1.85;;;;;;;;;;4961278;28;94508;-78
2024/01/16 00:33:17;;;;;;;3.67;1.80;;;;;;;;;;4963163;28;92131;-77
2024/01/16 00:35:44;;;;;;;6.20;1.88;;;;;;;;;;4955783;28;92695;-78
2024/01/16 00:38:11;;;;;;;5.30;1.70;;;;;;;;;;4961217;28;92789;-79
2024/01/16 00:40:37;;;;;;;5.85;1.70;;;;;;;;;;4960329;28;92288;-79
2024/01/16 00:43:04;;;;;;;11.05;1.88;;;;;;;;;;4963274;28;92485;-78
2024/01/16 00:45:30;;;;;;;8.55;2.00;;;;;;;;;;4960318;28;94382;-78
2024/01/16 00:47:57;;;;;;;7.38;1.80;;;;;;;;;;4943662;28;92774;-79
2024/01/16 00:50:24;;;;;;;10.90;1.98;;;;;;;;;;4946771;28;94989;-80
2024/01/16 00:52:52;;;;;;;7.97;1.58;;;;;;;;;;4961607;28;92316;-78
2024/01/16 00:55:19;;;;;;;5.15;1.80;;;;;;;;;;4963439;28;94886;-78
2024/01/16 00:57:45;;;;;;;3.53;1.45;;;;;;;;;;4980691;28;93059;-79
2024/01/16 01:00:12;;;;;;;5.13;1.58;;;;;;;;;;4981872;28;92172;-77
2024/01/16 01:02:38;;;;;;;6.72;2.05;;;;;;;;;;4981578;28;92784;-78
2024/01/16 01:05:06;;;;;;;5.10;1.60;;;;;;;;;;4969330;28;93252;-77
2024/01/16 01:07:33;;;;;;;4.57;1.50;;;;;;;;;;4965864;28;91595;-80
2024/01/16 01:09:59;;;;;;;5.00;1.50;;;;;;;;;;4961234;28;93720;-78
2024/01/16 01:12:26;;;;;;;5.13;1.60;;;;;;;;;;4968285;28;92376;-80
2024/01/16 01:14:52;;;;;;;2.50;1.30;;;;;;;;;;4960962;28;94580;-79
2024/01/16 01:17:19;;;;;;;4.22;1.50;;;;;;;;;;4944670;28;94019;-78
2024/01/16 01:19:46;;;;;;;4.65;1.50;;;;;;;;;;4962310;28;93249;-79
2024/01/16 01:22:12;;;;;;;4.07;1.52;;;;;;;;;;4962303;28;92328;-79
2024/01/16 01:24:39;;;;;;;4.82;1.50;;;;;;;;;;4961429;28;92782;-78
2024/01/16 01:27:06;;;;;;;4.32;1.50;;;;;;;;;;4960740;28;99281;-79
2024/01/16 01:29:32;;;;;;;3.78;1.60;;;;;;;;;;4965731;28;93593;-78
2024/01/16 01:31:59;;;;;;;5.25;1.50;;;;;;;;;;4963107;28;91719;-78
2024/01/16 01:34:25;;;;;;;4.35;1.42;;;;;;;;;;4958922;28;94503;-78
2024/01/16 01:36:52;;;;;;;5.05;1.58;;;;;;;;;;4939821;28;93689;-77
2024/01/16 01:39:21;;;;;;;6.78;1.80;;;;;;;;;;4961361;28;94480;-78
2024/01/16 01:41:48;;;;;;;5.13;1.50;;;;;;;;;;4943416;28;95455;-79
2024/01/16 01:44:15;;;;;;;6.78;1.65;;;;;;;;;;4941222;28;94765;-80
2024/01/16 01:46:43;;;;;;;4.63;1.30;;;;;;;;;;4948805;28;92534;-79
2024/01/16 01:49:11;;;;;;;5.07;1.25;;;;;;;;;;4961785;28;92758;-79
2024/01/16 01:51:38;;;;;;;4.25;1.25;;;;;;;;;;4963786;28;92799;-79
2024/01/16 01:54:04;;;;;;;3.92;1.40;;;;;;;;;;4960600;28;92440;-79
2024/01/16 01:56:31;;;;;;;7.00;1.60;;;;;;;;;;4971997;28;92652;-79
2024/01/16 01:59:01;;;;;;;9.65;1.90;;;;;;;;;;4981497;28;92080;-79
2024/01/16 02:01:29;;;;;;;5.50;1.42;;;;;;;;;;4967808;28;93109;-78
2024/01/16 02:03:57;;;;;;;4.60;1.30;;;;;;;;;;4959691;28;95253;-78
2024/01/16 02:06:24;;;;;;;5.28;1.33;;;;;;;;;;4959504;28;92294;-78
2024/01/16 02:08:51;;;;;;;4.88;1.30;;;;;;;;;;4961280;28;92495;-78
2024/01/16 02:11:17;;;;;;;3.97;1.25;;;;;;;;;;4969280;28;92763;-78
2024/01/16 02:13:44;;;;;;;4.13;1.20;;;;;;;;;;4979598;28;95490;-77
2024/01/16 02:16:20;;;;;;;4.82;1.30;;;;;;;;;;4962286;28;92600;-78
2024/01/16 02:18:46;;;;;;;3.63;1.10;;;;;;;;;;4961239;28;92208;-78
2024/01/16 02:21:16;;;;;;;7.07;1.50;;;;;;;;;;4961807;28;92361;-79
2024/01/16 02:23:43;;;;;;;3.40;1.13;;;;;;;;;;4961254;28;93014;-77
2024/01/16 02:26:10;;;;;;;3.47;1.10;;;;;;;;;;4960989;28;92437;-78
2024/01/16 02:28:36;;;;;;;3.83;1.10;;;;;;;;;;4957796;28;95385;-79
2024/01/16 02:31:03;;;;;;;4.38;1.20;;;;;;;;;;4960010;28;92739;-78
2024/01/16 02:33:29;;;;;;;4.55;1.15;;;;;;;;;;4962897;28;92255;-79
2024/01/16 02:35:56;;;;;;;3.60;1.13;;;;;;;;;;4952720;28;95364;-78
2024/01/16 02:38:23;;;;;;;5.55;1.10;;;;;;;;;;4958811;28;92110;-80
2024/01/16 02:40:49;;;;;;;3.35;1.10;;;;;;;;;;4960214;28;92459;-80
2024/01/16 02:43:16;;;;;;;3.45;1.00;;;;;;;;;;4959341;28;93392;-80
2024/01/16 02:45:42;;;;;;;5.95;1.20;;;;;;;;;;4961999;28;91445;-80
2024/01/16 02:48:09;;;;;;;3.10;1.10;;;;;;;;;;4962188;28;92190;-81
2024/01/16 02:50:36;;;;;;;6.93;1.20;;;;;;;;;;4958775;28;93882;-81
2024/01/16 02:53:02;;;;;;;2.28;0.82;;;;;;;;;;4958387;28;94771;-80
2024/01/16 02:55:29;;;;;;;3.92;1.13;;;;;;;;;;4968329;28;95025;-80
2024/01/16 02:57:55;;;;;;;4.38;1.00;;;;;;;;;;4965570;28;92220;-80
2024/01/16 03:00:22;;;;;;;3.72;1.10;;;;;;;;;;4960918;28;92478;-80
2024/01/16 03:02:49;;;;;;;2.95;1.08;;;;;;;;;;4959857;28;92712;-80
2024/01/16 03:05:15;;;;;;;3.92;1.00;;;;;;;;;;4959899;28;92386;-80
2024/01/16 03:07:42;;;;;;;4.05;0.90;;;;;;;;;;4959580;28;94662;-80
2024/01/16 03:10:09;;;;;;;4.53;1.00;;;;;;;;;;4960383;28;92029;-80
2024/01/16 03:12:35;;;;;;;2.35;0.82;;;;;;;;;;4955333;28;92766;-80
2024/01/16 03:15:02;;;;;;;3.47;0.90;;;;;;;;;;4940575;28;94970;-79
2024/01/16 03:17:29;;;;;;;3.40;0.90;;;;;;;;;;4943031;28;94990;-80
2024/01/16 03:19:56;;;;;;;3.97;1.02;;;;;;;;;;4939279;28;97447;-79
2024/01/16 03:22:24;;;;;;;6.32;1.20;;;;;;;;;;4942201;28;92222;-80
2024/01/16 03:24:50;;;;;;;3.15;0.93;;;;;;;;;;4948033;28;92158;-80
2024/01/16 03:27:17;;;;;;;3.35;0.75;;;;;;;;;;4962906;28;92387;-80
2024/01/16 03:29:45;;;;;;;3.75;0.70;;;;;;;;;;4962849;28;93500;-79
2024/01/16 03:32:11;;;;;;;;;;;;;;;;;;4964313;28;92237;-78
2024/01/16 03:34:39;;;;;;;2.33;0.80;;;;;;;;;;4960640;28;102695;-79
2024/01/16 03:37:05;;;;;;;3.65;0.80;;;;;;;;;;4939624;28;95284;-79
2024/01/16 03:39:32;;;;;;;3.28;0.80;;;;;;;;;;4962775;28;92039;-78
2024/01/16 03:41:58;;;;;;;3.20;0.80;;;;;;;;;;4961847;28;95151;-79
2024/01/16 03:44:25;;;;;;;2.40;0.60;;;;;;;;;;4962014;28;92323;-80
2024/01/16 03:46:51;;;;;;;4.50;0.93;;;;;;;;;;4962672;28;92481;-80
2024/01/16 03:49:18;;;;;;;4.13;0.70;;;;;;;;;;4946239;28;95373;-79
2024/01/16 03:51:46;;;;;;;1.50;0.60;;;;;;;;;;4962200;28;92388;-79
2024/01/16 03:54:13;;;;;;;2.05;0.60;;;;;;;;;;4960079;28;94561;-79
2024/01/16 03:56:40;;;;;;;2.95;0.80;;;;;;;;;;4970082;28;93088;-80
2024/01/16 03:59:06;;;;;;;3.30;0.90;;;;;;;;;;4983569;28;91606;-79
2024/01/16 04:01:33;;;;;;;1.73;0.55;;;;;;;;;;4985235;28;94284;-79
2024/01/16 04:04:00;;;;;;;2.53;0.70;;;;;;;;;;4981662;28;92448;-77
2024/01/16 04:06:28;;;;;;;3.88;0.80;;;;;;;;;;4980721;28;94526;-78
2024/01/16 04:08:55;;;;;;;6.57;1.02;;;;;;;;;;4961787;28;95228;-79
2024/01/16 04:11:22;;;;;;;2.88;0.73;;;;;;;;;;4969261;28;92067;-79
2024/01/16 04:13:49;;;;;;;6.88;1.00;;;;;;;;;;4983546;28;92525;-78
2024/01/16 04:16:16;;;;;;;2.90;0.75;;;;;;;;;;4982417;28;94354;-80
2024/01/16 04:18:43;;;;;;;3.50;0.60;;;;;;;;;;4982728;28;92435;-79
2024/01/16 04:21:10;;;;;;;3.55;0.80;;;;;;;;;;4978766;28;95176;-79
2024/01/16 04:23:36;;;;;;;4.40;0.73;;;;;;;;;;4962747;28;91481;-79
2024/01/16 04:26:03;;;;;;;4.25;0.80;;;;;;;;;;4963308;28;92299;-78
2024/01/16 04:28:30;;;;;;;2.17;0.60;;;;;;;;;;4957280;28;95372;-78
2024/01/16 04:30:57;;;;;;;1.92;0.60;;;;;;;;;;4942178;28;94666;-79
2024/01/16 04:33:24;;;;;;;2.60;0.68;;;;;;;;;;4941902;28;95329;-79
2024/01/16 04:35:50;;;;;;;2.97;0.75;;;;;;;;;;4965739;28;92628;-79
2024/01/16 04:38:17;;;;;;;3.47;0.70;;;;;;;;;;4948868;28;92031;-79
2024/01/16 04:40:44;;;;;;;2.58;0.80;;;;;;;;;;4961079;28;92748;-78
2024/01/16 04:43:10;;;;;;;3.30;0.60;;;;;;;;;;4965614;28;92750;-78
2024/01/16 04:45:37;;;;;;;2.92;0.60;;;;;;;;;;4962710;28;94268;-78
2024/01/16 04:48:04;;;;;;;6.53;0.82;;;;;;;;;;4961566;28;93599;-78
2024/01/16 04:50:33;;;;;;;2.85;0.80;;;;;;;;;;4943666;28;92109;-78
2024/01/16 04:53:01;;;;;;;1.85;0.50;;;;;;;;;;4961223;28;92440;-78
2024/01/16 04:55:28;;;;;;;2.40;0.70;;;;;;;;;;4947023;28;97920;-78
2024/01/16 04:57:55;;;;;;;2.47;0.60;;;;;;;;;;4964760;28;92420;-78
2024/01/16 05:00:22;;;;;;;1.85;0.57;;;;;;;;;;4982012;28;93073;-80
2024/01/16 05:02:49;;;;;;;8.48;0.60;;;;;;;;;;4980989;28;93083;-80
2024/01/16 05:05:16;;;;;;;3.40;0.70;;;;;;;;;;4964125;28;93385;-79
2024/01/16 05:07:43;;;;;;;1.77;0.63;;;;;;;;;;4962431;28;93346;-78
2024/01/16 05:10:09;;;;;;;1.70;0.52;;;;;;;;;;4961101;28;92343;-78
2024/01/16 05:12:36;;;;;;;3.10;0.60;;;;;;;;;;4977414;28;92570;-78
2024/01/16 05:15:03;;;;;;;1.65;0.50;;;;;;;;;;4965640;28;94244;-78
2024/01/16 05:17:29;;;;;;;2.35;0.70;;;;;;;;;;4976145;28;92311;-78
2024/01/16 05:19:59;;;;;;;3.53;0.73;;;;;;;;;;4943116;28;95036;-78
2024/01/16 05:22:26;;;;;;;1.88;0.68;;;;;;;;;;4961373;28;93191;-80
2024/01/16 05:24:52;;;;;;;1.65;0.47;;;;;;;;;;4962066;28;92045;-79
2024/01/16 05:27:20;;;;;;;;;;;;;;;;;;4963769;28;92392;-78
2024/01/16 05:29:47;;;;;;;1.25;0.52;;;;;;;;;;4961827;28;103295;-79
2024/01/16 05:32:13;;;;;;;3.92;0.82;;;;;;;;;;4961942;28;92218;-80
2024/01/16 05:34:40;;;;;;;4.32;0.70;;;;;;;;;;4957609;28;92730;-79
2024/01/16 05:37:07;;;;;;;3.75;0.57;;;;;;;;;;4955226;28;91767;-79
2024/01/16 05:39:33;;;;;;;2.95;0.70;;;;;;;;;;4958277;28;91972;-78
2024/01/16 05:42:03;;;;;;;11.52;1.20;;;;;;;;;;4961392;28;92552;-78
2024/01/16 05:44:30;;;;;;;9.63;1.27;;;;;;;;;;4957117;28;94593;-79
2024/01/16 05:46:56;;;;;;;4.47;0.70;;;;;;;;;;4961158;28;95528;-79
2024/01/16 05:49:23;;;;;;;7.72;1.00;;;;;;;;;;4963413;28;92776;-79
2024/01/16 05:51:51;;;;;;;5.68;1.00;;;;;;;;;;4959776;28;94768;-79
2024/01/16 05:54:18;;;;;;;2.88;0.73;;;;;;;;;;4961945;28;93104;-78
2024/01/16 05:56:44;;;;;;;5.50;0.80;;;;;;;;;;4974891;28;92866;-77
2024/01/16 05:59:11;;;;;;;2.25;0.75;;;;;;;;;;4961975;28;93765;-78
2024/01/16 06:01:38;;;;;;;6.68;0.93;;;;;;;;;;4944553;28;94523;-77
2024/01/16 06:04:04;;;;;;;3.40;0.80;;;;;;;;;;4960801;28;92083;-78
2024/01/16 06:06:31;;;;;;;5.53;0.80;;;;;;;;;;4959896;28;92740;-78
2024/01/16 06:08:59;;;;;;;7.57;0.90;;;;;;;;;;4942299;28;97926;-79
2024/01/16 06:11:29;;;;;;;4.25;0.75;;;;;;;;;;4968529;28;93497;-78
2024/01/16 06:13:56;;;;;;;2.03;0.70;;;;;;;;;;4971468;28;95571;-78
2024/01/16 06:16:22;;;;;;;4.63;0.90;;;;;;;;;;4959139;28;92178;-79
2024/01/16 06:18:49;;;;;;;3.33;0.77;;;;;;;;;;4960750;28;94832;-79
2024/01/16 06:21:17;;;;;;;3.33;0.80;;;;;;;;;;4961409;28;92666;-80
2024/01/16 06:23:47;;;;;;;4.10;0.80;;;;;;;;;;4960870;28;92087;-78
2024/01/16 06:26:14;;;;;;;3.65;0.80;;;;;;;;;;4959021;28;94518;-79
2024/01/16 06:28:42;;;;;;;3.08;0.80;;;;;;;;;;4959257;28;93682;-79
2024/01/16 06:31:09;;;;;;;4.18;0.68;;;;;;;;;;4963564;28;92262;-78
2024/01/16 06:33:36;;;;;;;1.15;0.75;;;;;;;;;;4959136;28;95172;-78
2024/01/16 06:36:05;;;;;;;2.88;0.70;;;;;;;;;;4954079;28;92068;-77
2024/01/16 06:38:32;;;;;;;3.10;0.82;;;;;;;;;;4959085;28;92788;-79
2024/01/16 06:40:59;;;;;;;1.73;0.73;;;;;;;;;;4960616;28;93168;-77
2024/01/16 06:43:25;;;;;;;2.95;1.00;;;;;;;;;;4959085;28;92391;-78
2024/01/16 06:45:53;;;;;;;3.17;0.82;;;;;;;;;;4959604;28;94229;-78
2024/01/16 06:48:19;;;;;;;3.28;0.90;;;;;;;;;;4960708;28;94068;-78
2024/01/16 06:50:46;;;;;;;2.97;1.00;;;;;;;;;;4961156;28;93443;-77
2024/01/16 06:53:13;;;;;;;3.80;1.10;;;;;;;;;;4962638;28;94148;-78
2024/01/16 06:55:42;;;;;;;4.82;1.48;;;;;;;;;;4963503;28;92748;-78
2024/01/16 06:58:10;;;;;;;3.00;0.93;;;;;;;;;;4963024;28;94606;-78
2024/01/16 07:00:36;;;;;;;3.65;1.20;;;;;;;;;;4962397;28;92374;-78
2024/01/16 07:03:03;;;;;;;3.17;1.02;;;;;;;;;;4964340;28;92206;-79
2024/01/16 07:05:30;;;;;;;2.25;1.02;;;;;;;;;;4962952;28;95080;-79
2024/01/16 07:07:58;;;;;;;3.30;1.10;;;;;;;;;;4964430;28;92686;-79
2024/01/16 07:10:24;;;;;;;3.33;1.05;;;;;;;;;;4963585;28;92173;-78
2024/01/16 07:12:51;;;;;;;4.97;1.30;;;;;;;;;;4982286;28;92584;-78
2024/01/16 07:15:18;;;;;;;3.08;1.10;;;;;;;;;;4966912;28;92024;-78
2024/01/16 07:17:45;;;;;;;3.72;1.10;;;;;;;;;;4964485;28;92719;-78
2024/01/16 07:20:12;;;;;;;4.80;1.50;;;;;;;;;;4964383;28;92734;-79
2024/01/16 07:22:41;;;;;;;3.33;1.38;;;;;;;;;;4960704;28;94769;-79
2024/01/16 07:25:07;;;;;;;4.50;1.30;;;;;;;;;;4959286;28;97416;-79
2024/01/16 07:27:34;;;;;;;3.13;1.23;;;;;;;;;;4944367;28;92814;-79
2024/01/16 07:30:01;;;;;;;4.40;1.17;;;;;;;;;;4944427;28;92617;-78
2024/01/16 07:32:28;;;;;;;3.08;1.33;;;;;;;;;;4958750;28;95039;-80
2024/01/16 07:34:57;;;;;;;3.05;1.17;;;;;;;;;;4959799;28;95974;-79
2024/01/16 07:37:24;;;;;;;3.28;1.25;;;;;;;;;;4964584;28;92239;-78
2024/01/16 07:39:51;;;;;;;3.15;1.20;;;;;;;;;;4963771;28;92321;-78
2024/01/16 07:42:17;;;;;;;4.43;1.20;;;;;;;;;;4963821;28;92053;-77
2024/01/16 07:44:44;;;;;;;2.97;1.20;;;;;;;;;;4961730;28;92404;-78
2024/01/16 07:47:10;;;;;;;3.15;1.30;;;;;;;;;;4960320;28;96785;-78
2024/01/16 07:49:37;;;;;;;3.30;1.20;;;;;;;;;;4963087;28;92171;-79
2024/01/16 07:52:04;;;;;;;3.20;1.10;;;;;;;;;;4963053;28;92801;-80
2024/01/16 07:54:31;;;;;;;4.38;1.48;;;;;;;;;;4961421;28;93159;-78
2024/01/16 07:56:57;;;;;;;3.33;1.20;;;;;;;;;;4978419;28;92753;-80
2024/01/16 07:59:26;;;;;;;3.22;1.13;;;;;;;;;;4986188;28;92860;-79
2024/01/16 08:01:53;;;;;;;3.10;1.33;;;;;;;;;;4978748;28;92329;-78
2024/01/16 08:04:20;;;;;;;5.13;1.30;;;;;;;;;;4962629;28;92724;-80
2024/01/16 08:06:47;;;;;;;2.97;1.20;;;;;;;;;;4944605;28;99195;-80
2024/01/16 08:09:14;;;;;;;5.43;1.42;;;;;;;;;;4958041;28;92391;-81
2024/01/16 08:11:41;;;;;;;3.30;1.20;;;;;;;;;;4963020;28;94648;-81
2024/01/16 08:14:08;;;;;;;3.80;1.40;;;;;;;;;;4963307;28;92301;-81
2024/01/16 08:16:35;;;;;;;8.35;1.60;;;;;;;;;;4961455;28;92123;-85
2024/01/16 08:19:03;;;;;;;4.30;1.55;;;;;;;;;;4965256;28;91975;-81
2024/01/16 08:21:30;;;;;;;5.72;2.13;;;;;;;;;;4959683;28;93071;-81
2024/01/16 08:23:56;;;;;;;5.15;2.50;;;;;;;;;;4962575;28;92823;-80
2024/01/16 08:26:23;;;;;;;4.55;1.95;;;;;;;;;;4961657;28;92702;-81
2024/01/16 08:28:50;;;;;;;7.38;3.10;;;;;;;;;;4960954;28;91426;-79
2024/01/16 08:31:18;;;;;;;;;;;;;;;;;;4925845;28;93035;-80
2024/01/16 08:33:45;;;;;;;4.78;2.38;;;;;;;;;;4945225;28;95676;-79
2024/01/16 08:36:15;;;;;;;6.10;2.70;;;;;;;;;;4956664;28;95578;-79
2024/01/16 08:38:41;;;;;;;7.55;2.50;;;;;;;;;;4961381;28;97729;-80
2024/01/16 08:41:08;;;;;;;6.15;2.47;;;;;;;;;;4948158;28;94991;-82
2024/01/16 08:43:35;;;;;;;4.93;2.55;;;;;;;;;;4963020;28;92417;-80
2024/01/16 08:46:02;;;;;;;4.53;2.38;;;;;;;;;;4961976;28;96030;-81
2024/01/16 08:48:29;;;;;;;7.15;2.42;;;;;;;;;;4962569;28;92405;-80
2024/01/16 08:50:56;;;;;;;6.15;2.35;;;;;;;;;;4962170;28;93228;-79
2024/01/16 08:53:23;;;;;;;;;;;;;;;;;;4962591;28;92265;-80
2024/01/16 08:55:50;;;;;;;5.28;2.45;;;;;;;;;;4962921;28;93768;-82
2024/01/16 08:58:16;;;;;;;5.35;2.42;;;;;;;;;;4960609;28;94814;-81
2024/01/16 09:00:43;;;;;;;6.78;2.65;;;;;;;;;;4957470;28;97553;-81
2024/01/16 09:03:09;;;;;;;5.00;2.55;;;;;;;;;;4965264;28;92097;-81
2024/01/16 09:05:38;;;;;;;4.88;2.17;;;;;;;;;;4960430;28;95188;-81
2024/01/16 09:08:06;;;;;;;5.07;2.58;;;;;;;;;;4961834;28;92255;-81
2024/01/16 09:10:36;;;;;;;5.50;2.42;;;;;;;;;;4950541;28;93241;-80
2024/01/16 09:13:03;;;;;;;4.90;2.20;;;;;;;;;;4941382;28;92782;-81
2024/01/16 09:15:29;;;;;;;4.82;2.22;;;;;;;;;;4954784;28;92346;-82
2024/01/16 09:17:56;;;;;;;4.60;2.20;;;;;;;;;;4961195;28;92528;-81
2024/01/16 09:20:23;;;;;;;5.70;2.22;;;;;;;;;;4959034;28;93233;-81
2024/01/16 09:22:50;;;;;;;5.13;2.25;;;;;;;;;;4960154;28;92761;-80
2024/01/16 09:25:16;;;;;;;4.47;1.98;;;;;;;;;;4963484;28;94814;-79
2024/01/16 09:27:43;;;;;;;5.78;2.15;;;;;;;;;;4959627;28;92428;-79
2024/01/16 09:30:12;;;;;;;5.75;2.20;;;;;;;;;;4958772;28;94913;-80
2024/01/16 09:32:39;;;;;;;5.22;2.15;;;;;;;;;;4959694;28;93064;-80
2024/01/16 09:35:08;;;;;;;4.38;2.03;;;;;;;;;;4955996;28;92856;-81
2024/01/16 09:37:35;;;;;;;4.60;2.03;;;;;;;;;;4960015;28;92622;-80
2024/01/16 09:40:05;;;;;;;8.13;1.83;;;;;;;;;;4943810;28;95245;-80
2024/01/16 09:42:31;;;;;;;4.85;2.03;;;;;;;;;;4960630;28;91374;-81
2024/01/16 09:45:00;;;;;;;5.60;2.10;;;;;;;;;;4960412;28;92267;-80
2024/01/16 09:47:26;;;;;;;4.90;2.08;;;;;;;;;;4947314;28;93425;-80
2024/01/16 09:49:54;;;;;;;4.65;2.20;;;;;;;;;;4958777;28;94817;-79
2024/01/16 09:52:20;;;;;;;4.93;2.20;;;;;;;;;;4960111;28;93437;-80
2024/01/16 09:54:48;;;;;;;5.40;2.20;;;;;;;;;;4943288;28;93646;-80
2024/01/16 09:57:15;;;;;;;5.55;2.40;;;;;;;;;;4959766;28;94747;-80
2024/01/16 09:59:42;;;;;;;5.85;2.53;;;;;;;;;;4943779;28;95056;-80
2024/01/16 10:02:09;;;;;;;;;;;;;;;;;;4961958;28;92585;-80
2024/01/16 10:04:36;;;;;;;5.45;2.30;;;;;;;;;;4960702;28;92193;-80
2024/01/16 10:07:03;;;;;;;4.72;2.10;;;;;;;;;;4955991;28;91850;-81
2024/01/16 10:09:31;;;;;;;4.65;2.03;;;;;;;;;;4963084;28;92084;-80
2024/01/16 10:11:57;;;;;;;;;;;;;;;;;;4971117;28;92708;-80
2024/01/16 10:14:24;;;;;;;4.45;1.90;;;;;;;;;;4960287;28;108478;-81
2024/01/16 10:17:12;;;;;;;4.30;1.92;;;;;;;;;;4960823;28;95705;-81
2024/01/16 10:19:52;;;;;;;4.55;1.90;;;;;;;;;;4961084;28;92748;-80
2024/01/16 10:22:24;;;;;;;5.15;2.03;;;;;;;;;;4961394;28;92157;-81
2024/01/16 10:24:52;;;;;;;;;;;;;;;;;;4952277;28;97452;-81
2024/01/16 10:27:20;;;;;;;6.13;1.83;;;;;;;;;;4949933;28;119162;-80
2024/01/16 10:29:57;;;;;;;4.07;1.60;;;;;;;;;;4962293;28;92510;-79
2024/01/16 10:32:30;;;;;;;4.25;1.70;;;;;;;;;;4961010;28;91431;-80
2024/01/16 10:35:10;;;;;;;4.85;1.77;;;;;;;;;;4955183;28;92220;-80
2024/01/16 10:37:47;;;;;;;3.38;1.58;;;;;;;;;;4941593;28;92621;-80
2024/01/16 10:40:18;;;;;;;4.00;1.80;;;;;;;;;;4950151;28;95169;-80
2024/01/16 10:42:58;;;;;;;3.30;1.67;;;;;;;;;;4960526;28;92596;-80
2024/01/16 10:45:26;;;;;;;4.35;1.52;;;;;;;;;;4943367;28;94713;-82
2024/01/16 10:47:52;;;;;;;;;;;;;;;;;;4961447;28;92768;-80
2024/01/16 10:50:19;;;;;;;4.15;1.60;;;;;;;;;;4959706;28;98119;-80
2024/01/16 10:52:49;;;;;;;3.50;1.33;;;;;;;;;;4961720;28;92500;-79
2024/01/16 10:55:19;;;;;;;3.75;1.75;;;;;;;;;;4961747;28;92958;-80
2024/01/16 10:57:47;;;;;;;4.47;1.50;;;;;;;;;;4976277;28;94189;-81
2024/01/16 11:00:17;;;;;;;3.70;1.60;;;;;;;;;;4959215;28;95831;-81
2024/01/16 11:02:49;;;;;;;3.25;1.40;;;;;;;;;;4960661;28;92319;-80
2024/01/16 11:05:19;;;;;;;4.13;1.65;;;;;;;;;;4957682;28;95024;-80
2024/01/16 11:07:46;;;;;;;3.33;1.50;;;;;;;;;;4959121;28;98921;-80
2024/01/16 11:10:13;;;;;;;4.03;1.60;;;;;;;;;;4960725;28;92163;-80
2024/01/16 11:12:40;;;;;;;3.92;1.45;;;;;;;;;;4959049;28;94668;-80
2024/01/16 11:15:08;;;;;;;4.90;1.60;;;;;;;;;;4971134;28;93811;-81
2024/01/16 11:17:36;;;;;;;3.10;1.35;;;;;;;;;;4960996;28;92417;-80
2024/01/16 11:20:09;;;;;;;3.47;1.40;;;;;;;;;;4960605;28;93134;-80
2024/01/16 11:22:59;;;;;;;3.70;1.30;;;;;;;;;;4960471;28;92460;-80
2024/01/16 11:25:32;;;;;;;4.90;1.58;;;;;;;;;;4960634;28;92776;-79
2024/01/16 11:28:10;;;;;;;3.63;1.48;;;;;;;;;;4960058;28;93106;-80
2024/01/16 11:30:36;;;;;;;3.95;1.45;;;;;;;;;;4958066;28;95837;-81
2024/01/16 11:33:06;;;;;;;2.47;1.20;;;;;;;;;;4960278;28;97133;-80
2024/01/16 11:35:34;;;;;;;3.65;1.40;;;;;;;;;;4939736;28;95379;-82
2024/01/16 11:38:05;;;;;;;4.38;1.30;;;;;;;;;;4957048;28;92184;-82
2024/01/16 11:40:32;;;;;;;3.83;1.20;;;;;;;;;;4956450;28;93361;-81
2024/01/16 11:42:58;;;;;;;;;;;;;;;;;;4945698;28;92723;-80
2024/01/16 11:45:31;;;;;;;4.35;1.20;;;;;;;;;;4962407;28;106131;-81
2024/01/16 11:48:16;;;;;;;4.15;1.40;;;;;;;;;;4962939;28;92063;-81
2024/01/16 11:50:43;;;;;;;3.33;1.40;;;;;;;;;;4959538;28;92105;-81
2024/01/16 11:53:10;;;;;;;3.55;1.60;;;;;;;;;;4961200;28;92779;-82
2024/01/16 11:55:43;;;;;;;5.10;1.77;;;;;;;;;;4958959;28;95115;-82
2024/01/16 11:58:15;;;;;;;3.17;1.58;;;;;;;;;;4955983;28;92238;-81
2024/01/16 12:00:45;;;;;;;4.05;1.77;;;;;;;;;;4944686;28;94919;-80
2024/01/16 12:03:13;;;;;;;4.53;1.80;;;;;;;;;;4943055;28;92283;-82
2024/01/16 12:05:57;;;;;;;4.50;1.77;;;;;;;;;;4956051;28;92767;-82
2024/01/16 12:08:23;;;;;;;;;;;;;;;;;;4946525;28;95364;-82
2024/01/16 12:10:50;;;;;;;4.38;2.00;;;;;;;;;;4965944;28;92534;-81
2024/01/16 12:13:17;;;;;;;5.85;1.92;;;;;;;;;;4987257;28;92491;-80
2024/01/16 12:15:43;;;;;;;5.22;2.10;;;;;;;;;;4985055;28;93027;-81
2024/01/16 12:18:10;;;;;;;4.13;1.83;;;;;;;;;;4982236;28;92513;-80
2024/01/16 12:20:49;;;;;;;5.30;1.95;;;;;;;;;;4964984;28;97397;-79
2024/01/16 12:23:16;;;;;;;5.50;2.15;;;;;;;;;;4967517;28;93790;-81
2024/01/16 12:25:42;;;;;;;6.60;2.15;;;;;;;;;;4963968;28;92492;-80
2024/01/16 12:28:29;;;;;;;4.63;2.10;;;;;;;;;;4961433;28;93066;-81
2024/01/16 12:30:59;;;;;;;5.30;2.22;;;;;;;;;;4962285;28;92147;-82
2024/01/16 12:33:27;;;;;;;5.57;2.25;;;;;;;;;;4963031;28;92494;-80
2024/01/16 12:36:02;;;;;;;5.95;2.20;;;;;;;;;;4955120;28;92844;-80
2024/01/16 12:38:29;;;;;;;5.95;2.28;;;;;;;;;;4963101;28;91234;-81
2024/01/16 12:40:57;;;;;;;6.63;2.42;;;;;;;;;;4963207;28;92262;-80
2024/01/16 12:43:24;;;;;;;6.03;2.13;;;;;;;;;;4964019;28;95175;-82
2024/01/16 12:45:57;;;;;;;5.32;2.30;;;;;;;;;;4959242;28;95107;-81
2024/01/16 12:48:24;;;;;;;5.38;2.20;;;;;;;;;;4960233;28;92723;-79
2024/01/16 12:50:58;;;;;;;4.45;2.10;;;;;;;;;;4944254;28;92672;-80
2024/01/16 12:53:25;;;;;;;5.85;2.40;;;;;;;;;;4961379;28;92639;-80
2024/01/16 12:56:05;;;;;;;4.40;2.00;;;;;;;;;;4974375;28;92722;-82
2024/01/16 12:58:31;;;;;;;;;;;;;;;;;;4963727;28;92095;-81
2024/01/16 13:01:18;;;;;;;5.45;2.20;;;;;;;;;;4946525;28;95128;-80
2024/01/16 13:03:53;;;;;;;5.10;1.85;;;;;;;;;;4954534;28;94758;-81
2024/01/16 13:06:20;;;;;;;5.97;2.10;;;;;;;;;;4963230;28;92331;-82
2024/01/16 13:08:47;;;;;;;5.70;2.20;;;;;;;;;;4960247;28;99274;-82
2024/01/16 13:11:19;;;;;;;;;;;;;;;;;;4960575;28;94524;-80
2024/01/16 13:14:00;;;;;;;5.43;2.20;;;;;;;;;;4964099;28;94426;-81
2024/01/16 13:16:27;;;;;;;5.38;2.15;;;;;;;;;;4959416;28;92532;-81
2024/01/16 13:19:08;;;;;;;5.95;2.13;;;;;;;;;;4961979;28;92263;-81
2024/01/16 13:21:36;;;;;;;4.70;2.00;;;;;;;;;;4960945;28;94668;-81
2024/01/16 13:24:03;;;;;;;5.57;2.13;;;;;;;;;;4960950;28;93112;-81
2024/01/16 13:26:30;;;;;;;7.35;2.15;;;;;;;;;;4959757;28;92348;-82
2024/01/16 13:28:56;;;;;;;5.82;1.95;;;;;;;;;;4965310;28;92601;-79
2024/01/16 13:31:23;;;;;;;3.95;1.65;;;;;;;;;;4960571;28;92974;-79
2024/01/16 13:33:50;;;;;;;4.70;1.75;;;;;;;;;;4961636;28;92543;-82
2024/01/16 13:36:16;;;;;;;4.32;1.75;;;;;;;;;;4952540;28;95217;-81
2024/01/16 13:39:03;;;;;;;5.07;1.75;;;;;;;;;;4960494;28;93462;-81
2024/01/16 13:41:30;;;;;;;4.95;1.88;;;;;;;;;;4962258;28;92403;-81
2024/01/16 13:43:56;;;;;;;3.95;1.80;;;;;;;;;;4944060;28;95159;-81
2024/01/16 13:46:23;;;;;;;5.25;1.80;;;;;;;;;;4959822;28;92570;-80
2024/01/16 13:49:10;;;;;;;5.13;1.73;;;;;;;;;;4962986;28;93099;-80
2024/01/16 13:51:36;;;;;;;5.63;1.80;;;;;;;;;;4947955;28;92991;-80
2024/01/16 13:54:03;;;;;;;4.32;1.63;;;;;;;;;;4965720;28;94895;-81
2024/01/16 13:56:30;;;;;;;4.38;1.60;;;;;;;;;;4963258;28;95619;-81
2024/01/16 13:59:16;;;;;;;5.22;1.80;;;;;;;;;;4958484;28;92431;-81
2024/01/16 14:01:44;;;;;;;5.40;1.77;;;;;;;;;;4959796;28;96062;-81
2024/01/16 14:04:11;;;;;;;4.57;1.65;;;;;;;;;;4959742;28;99264;-82
2024/01/16 14:06:37;;;;;;;3.35;1.45;;;;;;;;;;4959793;28;92468;-81
2024/01/16 14:09:24;;;;;;;5.38;1.88;;;;;;;;;;4951804;28;93492;-79
2024/01/16 14:11:50;;;;;;;4.05;1.80;;;;;;;;;;4958139;28;92779;-82
2024/01/16 14:14:17;;;;;;;3.72;1.50;;;;;;;;;;4962655;28;92074;-82
2024/01/16 14:16:44;;;;;;;4.28;1.70;;;;;;;;;;4942514;28;95188;-81
2024/01/16 14:19:20;;;;;;;4.22;1.70;;;;;;;;;;4960314;28;91987;-81
2024/01/16 14:21:47;;;;;;;4.30;1.70;;;;;;;;;;4960660;28;92484;-80
2024/01/16 14:24:14;;;;;;;4.20;1.67;;;;;;;;;;4957921;28;92426;-80
2024/01/16 14:26:44;;;;;;;4.03;1.50;;;;;;;;;;4956124;28;95008;-80
2024/01/16 14:29:11;;;;;;;3.53;1.52;;;;;;;;;;4958798;28;97974;-80
2024/01/16 14:31:37;;;;;;;4.35;1.77;;;;;;;;;;4942549;28;95455;-81
2024/01/16 14:34:04;;;;;;;4.63;1.70;;;;;;;;;;4958452;28;92626;-81
2024/01/16 14:36:31;;;;;;;4.97;1.63;;;;;;;;;;4955584;28;94598;-80
2024/01/16 14:38:57;;;;;;;4.80;1.80;;;;;;;;;;4960347;28;92527;-80
2024/01/16 14:41:24;;;;;;;2.72;1.48;;;;;;;;;;4955161;28;92786;-81
2024/01/16 14:43:51;;;;;;;4.70;1.65;;;;;;;;;;4947876;28;95191;-79
2024/01/16 14:46:18;;;;;;;4.50;1.88;;;;;;;;;;4940744;28;92161;-80
2024/01/16 14:48:47;;;;;;;3.70;1.63;;;;;;;;;;4959858;28;97695;-81
2024/01/16 14:51:14;;;;;;;3.47;1.60;;;;;;;;;;4955836;28;97640;-81